MSC Maya — 3FNF8 — position and weather

sailwx.info

Track history (hours):
 
Tides and Currents Weather Stations Pressure Air Temp Water Temp Dewpoint Dewpoint Depression Visibility Wind Speed Wind Dir Waves Ship Positions

MSC Maya

Last reported at 2015-Mar-22 17:04 UTC. Time now 2015-Mar-29 09:28 UTC.
Position N 26°31' W 078°46'.

Length 242 m; draft 8.2 m.

Type: Cargo ship. MMSI: 351384000.

Date/timePositionNaut miles runAvg speedWind from/ knotsBaromVisibWave heightAir tempDewpointWater temp
2015-Mar-22 17:04N 26°31' W 078°46'0 0.0
2015-Mar-21 20:27N 26°31' W 078°46'0 0.0
2015-Mar-21 19:32N 26°31' W 078°46'0 0.0
2015-Mar-21 18:26N 26°31' W 078°46'0 0.0
2015-Mar-21 17:33N 26°31' W 078°46'0 0.1
2015-Mar-21 16:31N 26°31' W 078°46'8 3.5
2015-Mar-21 14:21N 26°27' W 078°53'0 0.6
2015-Mar-21 13:31N 26°27' W 078°54'2 0.5
2015-Mar-21 09:33N 26°26' W 078°56'1 0.6
2015-Mar-21 08:33N 26°26' W 078°56'1 0.7
2015-Mar-21 07:33N 26°26' W 078°57'1 0.8
2015-Mar-21 06:22N 26°25' W 078°58'40 9.8
2015-Mar-21 02:18N 26°60' W 079°20'912.4
2015-Mar-21 01:33N 27°09' W 079°21'1312.6
2015-Mar-21 00:33N 27°22' W 079°21'1313.1
2015-Mar-20 23:33N 27°35' W 079°20'1312.9
2015-Mar-20 22:31N 27°48' W 079°20'  
2015-Mar-17 04:26N 37°54' W 076°10'5116.5
2015-Mar-17 01:22N 38°43' W 076°26'1316.8
2015-Mar-17 00:33N 38°56' W 076°23'1313.5
2015-Mar-16 23:34N 39°10' W 076°25'8 7.7
2015-Mar-16 22:31N 39°15' W 076°33'0 0.0
2015-Mar-16 21:31N 39°15' W 076°33'0 0.0
2015-Mar-16 20:31N 39°15' W 076°33'0 0.0
2015-Mar-16 19:31N 39°15' W 076°33'0 0.0
2015-Mar-16 18:33N 39°15' W 076°33'0 0.0
2015-Mar-16 17:31N 39°15' W 076°33'0 0.0
2015-Mar-16 16:32N 39°15' W 076°33'0 0.0
2015-Mar-16 15:32N 39°15' W 076°33'0 0.0
2015-Mar-16 14:33N 39°15' W 076°33'0 0.0
2015-Mar-16 13:29N 39°15' W 076°33'0 0.0
2015-Mar-16 12:29N 39°15' W 076°33'0 0.0
2015-Mar-16 11:32N 39°15' W 076°33'0 0.0
2015-Mar-16 10:32N 39°15' W 076°33'0 0.0
2015-Mar-16 09:33N 39°15' W 076°33'5 5.2
2015-Mar-16 08:33N 39°11' W 076°28'1212.4
2015-Mar-16 07:33N 38°60' W 076°23'1615.5
2015-Mar-16 06:32N 38°44' W 076°26'4915.7
2015-Mar-16 03:27N 37°57' W 076°11'136 5.4
2015-Mar-15 02:33N 39°24' W 073°58'1211.7
2015-Mar-15 01:32N 39°36' W 073°54'1212.0
2015-Mar-15 00:33N 39°48' W 073°52'1212.0
2015-Mar-14 23:33N 39°60' W 073°51'2510.6
2015-Mar-14 21:10N 40°25' W 073°48'5 7.9
2015-Mar-14 20:31N 40°29' W 073°53'1010.2
2015-Mar-14 19:33N 40°35' W 074°02'6 6.1
2015-Mar-14 18:33N 40°39' W 074°09'2 2.1
2015-Mar-14 17:33N 40°41' W 074°09'1 0.6
2015-Mar-14 16:31N 40°41' W 074°09'0 0.0
2015-Mar-14 15:33N 40°41' W 074°09'0 0.0
2015-Mar-14 14:32N 40°41' W 074°09'0 0.0
2015-Mar-14 13:32N 40°41' W 074°09'0 0.0
2015-Mar-14 12:26N 40°41' W 074°09'0 0.0
2015-Mar-14 11:32N 40°41' W 074°09'0 0.0
2015-Mar-14 10:32N 40°41' W 074°09'0 0.0
2015-Mar-14 09:28N 40°41' W 074°09'0 0.0
2015-Mar-14 08:28N 40°41' W 074°09'0 0.0
2015-Mar-14 07:33N 40°41' W 074°09'0 0.0
2015-Mar-14 06:31N 40°41' W 074°09'0 0.0
2015-Mar-14 05:33N 40°41' W 074°09'0 0.0
2015-Mar-14 04:33N 40°41' W 074°09'0 0.0
2015-Mar-14 03:33N 40°41' W 074°09'0 0.0
2015-Mar-14 02:33N 40°41' W 074°09'0 0.0
2015-Mar-14 01:33N 40°41' W 074°09'0 0.0
2015-Mar-14 00:31N 40°41' W 074°09'0 0.0
2015-Mar-13 23:32N 40°41' W 074°09'0 0.0
2015-Mar-13 22:25N 40°41' W 074°09'0 0.0
2015-Mar-13 21:30N 40°41' W 074°09'0 0.0
2015-Mar-13 20:30N 40°41' W 074°09'0 0.0
2015-Mar-13 19:12N 40°41' W 074°09'0 0.0
2015-Mar-13 18:30N 40°41' W 074°09'0 0.0
2015-Mar-13 17:33N 40°41' W 074°09'0 0.0
2015-Mar-13 16:21N 40°41' W 074°09'0 0.0
2015-Mar-13 15:33N 40°41' W 074°09'0 0.0
2015-Mar-13 14:27N 40°41' W 074°09'0 0.0
2015-Mar-13 13:33N 40°41' W 074°09'0 0.0
2015-Mar-13 12:33N 40°41' W 074°09'0 0.0
2015-Mar-13 11:33N 40°41' W 074°09'0 0.0
2015-Mar-13 10:33N 40°41' W 074°09'2 1.9
2015-Mar-13 09:33N 40°39' W 074°09'5 4.6
2015-Mar-13 08:33N 40°38' W 074°03'1010.2
2015-Mar-13 07:33N 40°29' W 073°55'  
Track history (hours):
 
Tides and Currents Weather Stations Pressure Air Temp Water Temp Dewpoint Dewpoint Depression Visibility Wind Speed Wind Dir Waves Ship Positions

MSC Maya

Last reported at 2015-Mar-22 17:04 UTC. Time now 2015-Mar-29 09:28 UTC.
Position N 26°31' W 078°46'.

Length 242 m; draft 8.2 m.

Type: Cargo ship. MMSI: 351384000.

Date/timePositionNaut miles runAvg speedWind from/ knotsBaromVisibWave heightAir tempDewpointWater temp
2015-Mar-22 17:04N 26°31' W 078°46'0 0.0
2015-Mar-21 20:27N 26°31' W 078°46'0 0.0
2015-Mar-21 19:32N 26°31' W 078°46'0 0.0
2015-Mar-21 18:26N 26°31' W 078°46'0 0.0
2015-Mar-21 17:33N 26°31' W 078°46'0 0.1
2015-Mar-21 16:31N 26°31' W 078°46'8 3.5
2015-Mar-21 14:21N 26°27' W 078°53'0 0.6
2015-Mar-21 13:31N 26°27' W 078°54'2 0.5
2015-Mar-21 09:33N 26°26' W 078°56'1 0.6
2015-Mar-21 08:33N 26°26' W 078°56'1 0.7
2015-Mar-21 07:33N 26°26' W 078°57'1 0.8
2015-Mar-21 06:22N 26°25' W 078°58'40 9.8
2015-Mar-21 02:18N 26°60' W 079°20'912.4
2015-Mar-21 01:33N 27°09' W 079°21'1312.6
2015-Mar-21 00:33N 27°22' W 079°21'1313.1
2015-Mar-20 23:33N 27°35' W 079°20'1312.9
2015-Mar-20 22:31N 27°48' W 079°20'  
2015-Mar-17 04:26N 37°54' W 076°10'5116.5
2015-Mar-17 01:22N 38°43' W 076°26'1316.8
2015-Mar-17 00:33N 38°56' W 076°23'1313.5
2015-Mar-16 23:34N 39°10' W 076°25'8 7.7
2015-Mar-16 22:31N 39°15' W 076°33'0 0.0
2015-Mar-16 21:31N 39°15' W 076°33'0 0.0
2015-Mar-16 20:31N 39°15' W 076°33'0 0.0
2015-Mar-16 19:31N 39°15' W 076°33'0 0.0
2015-Mar-16 18:33N 39°15' W 076°33'0 0.0
2015-Mar-16 17:31N 39°15' W 076°33'0 0.0
2015-Mar-16 16:32N 39°15' W 076°33'0 0.0
2015-Mar-16 15:32N 39°15' W 076°33'0 0.0
2015-Mar-16 14:33N 39°15' W 076°33'0 0.0
2015-Mar-16 13:29N 39°15' W 076°33'0 0.0
2015-Mar-16 12:29N 39°15' W 076°33'0 0.0
2015-Mar-16 11:32N 39°15' W 076°33'0 0.0
2015-Mar-16 10:32N 39°15' W 076°33'0 0.0
2015-Mar-16 09:33N 39°15' W 076°33'5 5.2
2015-Mar-16 08:33N 39°11' W 076°28'1212.4
2015-Mar-16 07:33N 38°60' W 076°23'1615.5
2015-Mar-16 06:32N 38°44' W 076°26'4915.7
2015-Mar-16 03:27N 37°57' W 076°11'136 5.4
2015-Mar-15 02:33N 39°24' W 073°58'1211.7
2015-Mar-15 01:32N 39°36' W 073°54'1212.0
2015-Mar-15 00:33N 39°48' W 073°52'1212.0
2015-Mar-14 23:33N 39°60' W 073°51'2510.6
2015-Mar-14 21:10N 40°25' W 073°48'5 7.9
2015-Mar-14 20:31N 40°29' W 073°53'1010.2
2015-Mar-14 19:33N 40°35' W 074°02'6 6.1
2015-Mar-14 18:33N 40°39' W 074°09'2 2.1
2015-Mar-14 17:33N 40°41' W 074°09'1 0.6
2015-Mar-14 16:31N 40°41' W 074°09'0 0.0
2015-Mar-14 15:33N 40°41' W 074°09'0 0.0
2015-Mar-14 14:32N 40°41' W 074°09'0 0.0
2015-Mar-14 13:32N 40°41' W 074°09'0 0.0
2015-Mar-14 12:26N 40°41' W 074°09'0 0.0
2015-Mar-14 11:32N 40°41' W 074°09'0 0.0
2015-Mar-14 10:32N 40°41' W 074°09'0 0.0
2015-Mar-14 09:28N 40°41' W 074°09'0 0.0
2015-Mar-14 08:28N 40°41' W 074°09'0 0.0
2015-Mar-14 07:33N 40°41' W 074°09'0 0.0
2015-Mar-14 06:31N 40°41' W 074°09'0 0.0
2015-Mar-14 05:33N 40°41' W 074°09'0 0.0
2015-Mar-14 04:33N 40°41' W 074°09'0 0.0
2015-Mar-14 03:33N 40°41' W 074°09'0 0.0
2015-Mar-14 02:33N 40°41' W 074°09'0 0.0
2015-Mar-14 01:33N 40°41' W 074°09'0 0.0
2015-Mar-14 00:31N 40°41' W 074°09'0 0.0
2015-Mar-13 23:32N 40°41' W 074°09'0 0.0
2015-Mar-13 22:25N 40°41' W 074°09'0 0.0
2015-Mar-13 21:30N 40°41' W 074°09'0 0.0
2015-Mar-13 20:30N 40°41' W 074°09'0 0.0
2015-Mar-13 19:12N 40°41' W 074°09'0 0.0
2015-Mar-13 18:30N 40°41' W 074°09'0 0.0
2015-Mar-13 17:33N 40°41' W 074°09'0 0.0
2015-Mar-13 16:21N 40°41' W 074°09'0 0.0
2015-Mar-13 15:33N 40°41' W 074°09'0 0.0
2015-Mar-13 14:27N 40°41' W 074°09'0 0.0
2015-Mar-13 13:33N 40°41' W 074°09'0 0.0
2015-Mar-13 12:33N 40°41' W 074°09'0 0.0
2015-Mar-13 11:33N 40°41' W 074°09'0 0.0
2015-Mar-13 10:33N 40°41' W 074°09'2 1.9
2015-Mar-13 09:33N 40°39' W 074°09'5 4.6
2015-Mar-13 08:33N 40°38' W 074°03'1010.2
2015-Mar-13 07:33N 40°29' W 073°55'  

Dump ship's entire track history